Time;durP1;ratioP1;P1;durP2;ratioP2;P2;SDS_P1;SDS_P2;PMS_P1;PMS_P2;Temp;Humidity;BMP_temperature;BMP_pressure;BME280_temperature;BME280_humidity;BME280_pressure;Samples;Min_cycle;Max_cycle;Signal;HPM_P1;HPM_P2
2023/01/19 00:00:14;;;;;;;78.10;71.38;;;;;;;14.08;100.00;100059.34;5048249;28;20046;-82
2023/01/19 00:02:46;;;;;;;72.30;66.18;;;;;;;14.24;100.00;100062.22;5046734;28;20136;-82
2023/01/19 00:05:13;;;;;;;78.82;71.68;;;;;;;14.10;100.00;100051.06;5046934;28;20063;-82
2023/01/19 00:07:40;;;;;;;73.68;67.57;;;;;;;14.25;100.00;100045.97;5051378;28;20056;-82
2023/01/19 00:10:08;;;;;;;79.03;71.57;;;;;;;14.05;100.00;100045.66;5046274;28;20115;-82
2023/01/19 00:12:35;;;;;;;76.55;70.03;;;;;;;14.09;100.00;100044.91;5046466;28;20491;-82
2023/01/19 00:15:01;;;;;;;74.20;67.78;;;;;;;14.09;100.00;100039.59;5047124;28;20045;-82
2023/01/19 00:17:28;;;;;;;79.22;72.13;;;;;;;14.08;100.00;100047.84;5046951;28;20056;-82
2023/01/19 00:19:56;;;;;;;76.18;69.45;;;;;;;14.11;100.00;100056.19;5046812;28;20079;-82
2023/01/19 00:22:23;;;;;;;82.72;74.50;;;;;;;14.06;100.00;100061.44;5047975;28;20049;-82
2023/01/19 00:24:50;;;;;;;72.90;66.45;;;;;;;14.17;100.00;100059.72;5045070;28;20049;-82
2023/01/19 00:27:17;;;;;;;80.63;72.97;;;;;;;14.24;100.00;100056.88;5046045;28;20045;-82
2023/01/19 00:29:43;;;;;;;77.25;69.28;;;;;;;14.23;100.00;100056.06;5046403;28;20052;-82
2023/01/19 00:32:10;;;;;;;88.60;80.63;;;;;;;14.29;100.00;100057.75;5045908;28;20049;-82
2023/01/19 00:34:38;;;;;;;91.28;83.97;;;;;;;14.27;100.00;100065.22;5043683;28;20103;-82
2023/01/19 00:37:06;;;;;;;79.85;73.18;;;;;;;14.37;100.00;100067.19;5045640;28;20491;-82
2023/01/19 00:39:33;;;;;;;78.18;71.40;;;;;;;14.32;100.00;100072.50;5041245;28;20055;-82
2023/01/19 00:44:44;;;;;;;80.00;73.20;;;;;;;14.13;100.00;100078.13;5044456;28;20048;-82
2023/01/19 00:47:11;;;;;;;74.53;67.40;;;;;;;14.12;100.00;100081.81;5048759;28;20126;-82
2023/01/19 00:49:38;;;;;;;79.60;73.10;;;;;;;13.89;100.00;100071.34;5043833;28;20049;-82
2023/01/19 00:52:06;;;;;;;78.90;72.07;;;;;;;14.09;100.00;100081.50;5047769;28;20495;-82
2023/01/19 00:54:33;;;;;;;69.57;62.80;;;;;;;13.98;100.00;100080.56;5045687;28;20049;-82
2023/01/19 00:57:00;;;;;;;78.30;71.60;;;;;;;14.03;100.00;100077.94;5043377;28;20054;-82
2023/01/19 00:59:26;;;;;;;82.15;74.18;;;;;;;13.87;100.00;100074.22;5044494;28;20053;-82
2023/01/19 01:01:53;;;;;;;78.22;70.70;;;;;;;13.87;100.00;100079.56;5041274;28;20049;-82
2023/01/19 01:04:20;;;;;;;75.63;67.45;;;;;;;13.73;100.00;100070.25;5043889;28;20116;-82
2023/01/19 01:06:47;;;;;;;82.13;74.43;;;;;;;13.90;100.00;100068.41;5054500;28;20091;-82
2023/01/19 01:09:15;;;;;;;71.38;65.20;;;;;;;13.90;100.00;100068.41;5052532;28;20069;-83
2023/01/19 01:11:42;;;;;;;73.88;66.75;;;;;;;13.81;100.00;100063.72;5052710;28;20044;-82
2023/01/19 01:14:10;;;;;;;76.97;71.00;;;;;;;13.85;100.00;100068.31;5054509;28;20602;-83
2023/01/19 01:16:36;;;;;;;74.68;67.95;;;;;;;13.83;100.00;100069.59;5053628;28;20049;-83
2023/01/19 01:19:03;;;;;;;71.20;64.32;;;;;;;13.66;100.00;100066.94;5055250;28;20104;-83
2023/01/19 01:21:30;;;;;;;64.78;59.38;;;;;;;13.76;100.00;100061.78;5051448;28;20050;-82
2023/01/19 01:23:57;;;;;;;88.32;81.03;;;;;;;13.51;100.00;100065.63;5057149;28;20549;-83
2023/01/19 01:26:25;;;;;;;79.20;71.13;;;;;;;13.72;100.00;100063.31;5051799;28;20052;-83
2023/01/19 01:28:52;;;;;;;98.40;89.68;;;;;;;13.69;100.00;100053.94;5051628;28;20049;-83
2023/01/19 01:31:18;;;;;;;81.75;73.90;;;;;;;13.66;100.00;100048.28;5052161;28;20106;-82
2023/01/19 01:33:45;;;;;;;76.97;69.57;;;;;;;13.96;100.00;100040.75;5053430;28;20052;-82
2023/01/19 01:36:12;;;;;;;79.35;71.85;;;;;;;14.39;100.00;100044.53;5050240;28;20075;-82
2023/01/19 01:38:39;;;;;;;76.20;69.65;;;;;;;14.55;100.00;100050.09;5061339;28;20076;-82
2023/01/19 01:41:06;;;;;;;75.78;69.15;;;;;;;14.34;100.00;100038.31;5053143;28;20046;-82
2023/01/19 01:43:45;;;;;;;69.07;63.40;;;;;;;14.60;100.00;100047.50;5050092;28;20044;-82
2023/01/19 01:46:14;;;;;;;73.13;66.43;;;;;;;14.78;100.00;100043.72;5050029;28;20045;-82
2023/01/19 01:48:43;;;;;;;77.38;70.85;;;;;;;14.79;100.00;100037.31;5051706;28;20052;-82
2023/01/19 01:51:24;;;;;;;72.13;65.90;;;;;;;14.77;100.00;100039.44;5051267;28;20053;-83
2023/01/19 01:53:57;;;;;;;78.50;72.05;;;;;;;14.77;100.00;100026.06;5056132;28;20041;-82
2023/01/19 01:56:28;;;;;;;78.25;72.03;;;;;;;14.82;100.00;100015.41;5050470;28;20048;-83
2023/01/19 01:58:57;;;;;;;68.13;62.33;;;;;;;14.78;100.00;100008.97;5051850;28;20048;-83
2023/01/19 02:04:09;;;;;;;85.18;78.20;;;;;;;14.78;100.00;100012.44;5052337;28;20055;-82
2023/01/19 02:14:51;;;;;;;74.18;67.55;;;;;;;14.68;100.00;100017.69;5051777;28;20048;-82
2023/01/19 02:17:18;;;;;;;81.35;74.75;;;;;;;14.72;100.00;100017.97;5054017;28;20049;-83
2023/01/19 02:19:45;;;;;;;70.68;64.75;;;;;;;14.74;100.00;100019.34;5048921;28;20041;-82
2023/01/19 02:22:17;;;;;;;80.18;73.20;;;;;;;14.91;100.00;100029.16;5051146;28;20051;-82
2023/01/19 02:24:46;;;;;;;80.43;73.88;;;;;;;14.85;100.00;100022.94;5049368;28;20048;-83
2023/01/19 02:27:14;;;;;;;68.75;63.10;;;;;;;14.84;100.00;100024.00;5051854;28;20049;-82
2023/01/19 02:29:41;;;;;;;73.90;68.47;;;;;;;14.75;100.00;100034.31;5052268;28;20107;-82
2023/01/19 02:32:08;;;;;;;76.10;69.80;;;;;;;14.91;100.00;100015.78;5049281;28;20572;-83
2023/01/19 02:34:35;;;;;;;74.90;68.18;;;;;;;14.95;100.00;100027.56;5055590;28;20449;-82
2023/01/19 02:37:06;;;;;;;76.50;70.65;;;;;;;14.90;100.00;100033.69;5051468;28;20049;-82
2023/01/19 02:39:36;;;;;;;76.72;70.32;;;;;;;14.90;100.00;100033.69;5047173;28;20049;-82
2023/01/19 02:42:09;;;;;;;82.28;75.43;;;;;;;14.86;100.00;100032.59;5052155;28;20075;-82
2023/01/19 02:44:38;;;;;;;70.85;65.30;;;;;;;14.83;100.00;100031.22;5052641;28;20130;-82
2023/01/19 02:47:05;;;;;;;80.60;74.20;;;;;;;14.78;100.00;100033.81;5051154;28;20071;-83
2023/01/19 02:49:32;;;;;;;72.45;66.72;;;;;;;14.68;100.00;100041.72;5050083;28;20107;-83
2023/01/19 02:52:00;;;;;;;69.55;63.97;;;;;;;14.74;100.00;100038.06;5054085;28;20044;-83
2023/01/19 02:54:37;;;;;;;71.55;65.90;;;;;;;14.64;100.00;100037.94;5053567;28;20116;-82
2023/01/19 02:57:35;;;;;;;71.65;65.68;;;;;;;14.56;100.00;100038.38;5052558;28;20045;-83
2023/01/19 03:00:21;;;;;;;67.05;61.65;;;;;;;14.73;100.00;100036.44;5051409;28;20056;-82
2023/01/19 03:03:01;;;;;;;78.70;72.10;;;;;;;14.70;100.00;100036.13;5049464;28;20493;-82
2023/01/19 03:05:37;;;;;;;72.82;67.18;;;;;;;14.69;100.00;100032.66;5052031;28;20049;-82
2023/01/19 03:08:14;;;;;;;72.55;66.80;;;;;;;14.59;100.00;100035.22;5058702;28;20075;-82
2023/01/19 03:10:50;;;;;;;79.00;72.97;;;;;;;14.64;100.00;100038.75;5050236;28;20099;-82
2023/01/19 03:13:27;;;;;;;67.75;62.28;;;;;;;14.74;100.00;100042.59;5053407;28;20052;-82
2023/01/19 03:15:58;;;;;;;70.10;63.60;;;;;;;14.74;100.00;100051.44;5049665;28;20485;-82
2023/01/19 03:18:29;;;;;;;75.45;69.50;;;;;;;14.64;100.00;100054.78;5049624;28;20103;-82
2023/01/19 03:21:00;;;;;;;74.03;68.05;;;;;;;14.65;100.00;100059.06;5050394;28;20080;-83
2023/01/19 03:23:31;;;;;;;63.03;57.08;;;;;;;14.77;100.00;100069.63;5029224;28;20045;-83
2023/01/19 03:26:00;;;;;;;69.88;63.88;;;;;;;14.74;100.00;100064.00;5051485;28;20121;-82
2023/01/19 03:28:30;;;;;;;74.07;68.30;;;;;;;14.76;100.00;100056.50;5052508;28;20049;-82
2023/01/19 03:31:02;;;;;;;69.68;62.88;;;;;;;14.62;100.00;100069.44;5051030;28;20046;-82
2023/01/19 03:33:32;;;;;;;64.70;58.92;;;;;;;14.59;100.00;100075.28;5049674;28;20053;-82
2023/01/19 03:36:04;;;;;;;69.13;63.33;;;;;;;14.56;100.00;100062.44;5050096;28;20045;-83
2023/01/19 03:38:35;;;;;;;68.40;62.10;;;;;;;14.72;100.00;100058.06;5058998;28;20057;-82
2023/01/19 03:41:04;;;;;;;65.15;59.55;;;;;;;14.63;100.00;100061.19;5051041;28;20057;-82
2023/01/19 03:43:34;;;;;;;66.50;61.08;;;;;;;14.67;100.00;100050.78;5050197;28;20053;-82
2023/01/19 03:46:03;;;;;;;62.05;56.20;;;;;;;14.47;100.00;100063.88;5050649;28;20061;-83
2023/01/19 03:48:30;;;;;;;64.13;57.90;;;;;;;14.66;100.00;100071.38;5050581;28;20494;-82
2023/01/19 03:50:58;;;;;;;66.53;60.92;;;;;;;14.63;100.00;100071.88;5056238;28;20052;-82
2023/01/19 03:53:24;;;;;;;65.30;59.55;;;;;;;14.61;100.00;100076.66;5029292;28;20041;-83
2023/01/19 03:55:53;;;;;;;56.75;51.78;;;;;;;14.64;100.00;100083.34;5051327;28;20053;-82
2023/01/19 03:58:20;;;;;;;59.75;54.85;;;;;;;14.61;100.00;100078.50;5042359;28;20057;-82
2023/01/19 04:00:49;;;;;;;63.25;56.88;;;;;;;14.67;100.00;100080.19;5053506;28;20049;-82
2023/01/19 04:03:17;;;;;;;56.50;51.83;;;;;;;14.62;100.00;100083.63;5054056;28;20045;-82
2023/01/19 04:05:44;;;;;;;64.70;58.80;;;;;;;14.55;100.00;100079.50;5059537;28;20071;-82
2023/01/19 04:08:11;;;;;;;60.20;53.80;;;;;;;14.59;100.00;100077.97;5048578;28;20075;-82
2023/01/19 04:10:38;;;;;;;62.30;55.75;;;;;;;14.59;100.00;100088.66;5057252;28;20045;-82
2023/01/19 04:13:06;;;;;;;57.85;51.38;;;;;;;14.66;100.00;100081.25;5057506;28;20568;-82
2023/01/19 04:15:32;;;;;;;56.92;51.40;;;;;;;14.52;100.00;100088.00;5055981;28;20049;-82
2023/01/19 04:18:01;;;;;;;60.55;55.28;;;;;;;14.71;100.00;100081.31;5054442;28;20045;-82
2023/01/19 04:20:28;;;;;;;60.08;54.47;;;;;;;14.48;100.00;100092.22;5054787;28;20048;-82
2023/01/19 04:22:58;;;;;;;62.97;56.90;;;;;;;14.52;100.00;100096.03;5049698;28;20041;-82
2023/01/19 04:25:25;;;;;;;60.22;54.22;;;;;;;14.47;100.00;100106.63;5051389;28;20115;-82
2023/01/19 04:27:52;;;;;;;58.55;53.15;;;;;;;14.55;100.00;100099.00;5054978;28;20057;-82
2023/01/19 04:30:19;;;;;;;65.40;59.55;;;;;;;14.61;100.00;100110.56;5058156;28;20109;-82
2023/01/19 04:32:46;;;;;;;67.50;61.17;;;;;;;14.63;100.00;100106.59;5053919;28;20495;-82
2023/01/19 04:35:15;;;;;;;63.67;57.75;;;;;;;14.46;100.00;100110.34;5054460;28;20049;-82
2023/01/19 04:37:43;;;;;;;65.20;59.85;;;;;;;14.49;100.00;100112.53;5051071;28;20175;-82
2023/01/19 04:40:11;;;;;;;81.57;73.70;;;;;;;14.32;100.00;100117.91;5051012;28;20057;-82
2023/01/19 04:42:38;;;;;;;76.88;69.25;;;;;;;14.45;100.00;100114.88;5054865;28;20099;-82
2023/01/19 04:45:05;;;;;;;80.68;73.35;;;;;;;14.38;100.00;100122.28;5055275;28;20403;-82
2023/01/19 04:47:32;;;;;;;77.68;70.85;;;;;;;14.14;100.00;100127.78;5055200;28;20049;-82
2023/01/19 04:49:59;;;;;;;78.60;71.28;;;;;;;14.19;100.00;100133.22;5054666;28;20072;-82
2023/01/19 04:52:33;;;;;;;72.55;66.20;;;;;;;14.31;100.00;100137.63;5056934;28;20421;-82
2023/01/19 04:55:00;;;;;;;79.75;71.38;;;;;;;14.23;100.00;100146.09;5053423;28;20056;-82
2023/01/19 04:57:27;;;;;;;75.43;68.72;;;;;;;14.13;100.00;100138.69;5051233;28;20049;-82
2023/01/19 04:59:56;;;;;;;62.97;57.40;;;;;;;14.23;100.00;100130.06;5058754;28;20106;-82
2023/01/19 05:02:23;;;;;;;59.55;54.05;;;;;;;14.13;100.00;100136.03;5045243;28;20049;-82
2023/01/19 05:04:49;;;;;;;58.40;52.67;;;;;;;14.12;100.00;100135.22;5045679;28;20130;-82
2023/01/19 05:07:16;;;;;;;63.45;57.55;;;;;;;14.07;100.00;100131.66;5042953;28;20053;-82
2023/01/19 05:09:45;;;;;;;59.20;54.22;;;;;;;13.94;100.00;100140.81;5037314;28;20128;-82
2023/01/19 05:12:11;;;;;;;62.47;55.75;;;;;;;13.84;100.00;100143.31;5036005;28;20054;-82
2023/01/19 05:14:38;;;;;;;62.13;55.72;;;;;;;13.83;100.00;100141.69;5044224;28;20482;-82
2023/01/19 05:17:05;;;;;;;58.45;52.95;;;;;;;13.87;100.00;100130.28;5049282;28;20045;-82
2023/01/19 05:19:31;;;;;;;61.45;55.90;;;;;;;13.81;100.00;100144.59;5045165;28;20079;-82
2023/01/19 05:21:58;;;;;;;61.95;56.30;;;;;;;13.83;100.00;100145.19;5046166;28;20457;-82
2023/01/19 05:24:25;;;;;;;60.75;55.17;;;;;;;13.70;100.00;100148.94;5046639;28;20049;-82
2023/01/19 05:26:53;;;;;;;60.40;53.53;;;;;;;13.68;100.00;100145.72;5040483;28;20055;-82
2023/01/19 05:29:20;;;;;;;65.20;58.97;;;;;;;13.63;100.00;100161.63;5030584;28;20058;-82
2023/01/19 05:31:47;;;;;;;65.35;59.25;;;;;;;13.68;100.00;100161.72;5039159;28;20126;-82
2023/01/19 05:34:14;;;;;;;60.90;54.33;;;;;;;13.84;100.00;100167.34;5044621;28;20049;-82
2023/01/19 05:36:41;;;;;;;65.90;59.20;;;;;;;13.59;100.00;100163.16;4948791;28;20500;-82
2023/01/19 05:39:08;;;;;;;63.17;57.40;;;;;;;13.68;100.00;100164.41;5025994;28;20115;-82
2023/01/19 05:41:35;;;;;;;60.35;54.45;;;;;;;13.77;100.00;100174.66;5046545;28;20111;-82
2023/01/19 05:44:03;;;;;;;62.97;56.15;;;;;;;13.63;100.00;100180.31;5039413;28;20053;-82
2023/01/19 05:46:30;;;;;;;57.70;52.63;;;;;;;13.51;100.00;100183.03;5034147;28;20107;-82
2023/01/19 05:48:57;;;;;;;58.65;52.50;;;;;;;13.57;100.00;100188.47;5034986;28;20044;-82
2023/01/19 05:51:24;;;;;;;56.22;50.03;;;;;;;13.73;100.00;100191.16;5042879;28;20507;-82
2023/01/19 05:53:51;;;;;;;55.92;50.20;;;;;;;13.68;100.00;100195.63;5036778;28;20570;-82
2023/01/19 05:56:17;;;;;;;55.42;50.10;;;;;;;13.70;100.00;100194.31;5044144;28;20478;-82
2023/01/19 05:58:44;;;;;;;54.35;48.60;;;;;;;13.58;100.00;100193.53;5043672;28;20083;-82
2023/01/19 06:01:12;;;;;;;55.13;50.17;;;;;;;13.47;100.00;100203.22;5040646;28;20049;-82
2023/01/19 06:03:39;;;;;;;55.80;49.95;;;;;;;13.43;100.00;100204.72;5037329;28;20045;-82
2023/01/19 06:06:07;;;;;;;60.47;54.22;;;;;;;13.39;100.00;100205.47;5040140;28;20042;-82
2023/01/19 06:08:34;;;;;;;60.70;54.22;;;;;;;13.39;100.00;100195.59;5034618;28;20494;-82
2023/01/19 06:11:00;;;;;;;56.92;51.28;;;;;;;13.39;100.00;100200.13;5032259;28;20099;-83
2023/01/19 06:13:27;;;;;;;56.65;51.42;;;;;;;13.38;100.00;100199.31;5031341;28;20079;-82
2023/01/19 06:15:58;;;;;;;57.28;50.58;;;;;;;13.43;100.00;100210.06;5036301;28;20103;-82
2023/01/19 06:18:26;;;;;;;56.80;51.35;;;;;;;13.59;100.00;100205.06;5040567;28;20111;-82
2023/01/19 06:20:57;;;;;;;56.35;50.55;;;;;;;13.47;100.00;100216.56;5041452;28;20049;-82
2023/01/19 06:23:24;;;;;;;62.28;54.40;;;;;;;13.51;100.00;100215.03;5029953;28;20057;-82
2023/01/19 06:25:51;;;;;;;61.28;53.58;;;;;;;13.45;100.00;100213.31;5031628;28;20561;-82
2023/01/19 06:28:21;;;;;;;58.85;51.50;;;;;;;13.48;100.00;100212.84;5044745;28;20132;-82
2023/01/19 06:30:49;;;;;;;55.88;50.20;;;;;;;13.67;100.00;100218.00;5041293;28;20124;-82
2023/01/19 06:33:15;;;;;;;57.63;49.92;;;;;;;13.86;100.00;100223.97;5043331;28;20120;-81
2023/01/19 06:35:44;;;;;;;57.95;51.63;;;;;;;13.89;100.00;100223.50;5043302;28;20584;-82
2023/01/19 06:38:12;;;;;;;65.85;51.55;;;;;;;13.90;100.00;100231.25;5052025;28;20045;-82
2023/01/19 06:40:39;;;;;;;55.38;49.97;;;;;;;14.01;100.00;100226.91;5046200;28;20045;-82
2023/01/19 06:43:06;;;;;;;54.65;48.65;;;;;;;14.00;100.00;100233.28;5040992;28;20095;-82
2023/01/19 06:45:33;;;;;;;56.75;49.55;;;;;;;14.21;100.00;100235.25;5043819;28;20489;-82
2023/01/19 06:48:00;;;;;;;53.17;47.45;;;;;;;14.38;100.00;100229.13;5044792;28;20123;-82
2023/01/19 06:50:27;;;;;;;53.65;48.10;;;;;;;14.54;100.00;100235.56;5045027;28;20050;-82
2023/01/19 06:52:55;;;;;;;59.65;51.00;;;;;;;14.61;100.00;100223.66;5048715;28;20049;-82
2023/01/19 06:55:21;;;;;;;54.85;48.33;;;;;;;14.75;100.00;100220.63;5039487;28;20053;-82
2023/01/19 06:57:48;;;;;;;56.67;50.40;;;;;;;14.92;100.00;100218.75;5044115;28;20503;-82
2023/01/19 07:00:16;;;;;;;57.78;51.42;;;;;;;14.78;100.00;100223.63;5053675;28;20053;-82
2023/01/19 07:02:43;;;;;;;53.80;48.35;;;;;;;14.75;100.00;100217.97;5043007;28;20050;-82
2023/01/19 07:05:10;;;;;;;55.05;49.08;;;;;;;14.64;100.00;100227.69;5043870;28;20057;-82
2023/01/19 07:07:38;;;;;;;57.72;50.58;;;;;;;14.56;100.00;100223.56;5044351;28;20049;-82
2023/01/19 07:10:07;;;;;;;58.90;50.05;;;;;;;14.62;100.00;100222.59;5044211;28;20422;-82
2023/01/19 07:12:35;;;;;;;54.33;48.70;;;;;;;14.80;100.00;100218.03;5043930;28;20053;-82
2023/01/19 07:15:02;;;;;;;59.80;48.28;;;;;;;15.08;100.00;100204.50;5045258;28;20403;-82
2023/01/19 07:17:29;;;;;;;55.13;49.25;;;;;;;15.38;100.00;100218.53;5044067;28;20056;-82
2023/01/19 07:19:55;;;;;;;55.65;49.97;;;;;;;15.60;100.00;100215.81;5042427;28;20526;-82
2023/01/19 07:22:22;;;;;;;62.30;49.70;;;;;;;15.85;100.00;100215.31;5046222;28;20099;-82
2023/01/19 07:24:49;;;;;;;54.78;47.70;;;;;;;15.96;100.00;100223.19;5041886;28;20050;-82
2023/01/19 07:27:17;;;;;;;53.88;48.53;;;;;;;16.06;100.00;100221.66;5044137;28;20080;-82
2023/01/19 07:29:44;;;;;;;53.90;48.20;;;;;;;16.26;100.00;100224.53;5044799;28;20056;-82
2023/01/19 07:32:10;;;;;;;52.70;47.35;;;;;;;16.38;100.00;100217.13;5044907;28;20106;-82
2023/01/19 07:34:37;;;;;;;54.90;48.47;;;;;;;16.56;100.00;100218.59;5046155;28;20080;-82
2023/01/19 07:37:06;;;;;;;53.10;47.38;;;;;;;16.69;100.00;100226.19;5049997;28;20057;-82
2023/01/19 07:39:35;;;;;;;51.67;46.47;;;;;;;16.77;100.00;100221.44;5051837;28;20046;-82
2023/01/19 07:42:02;;;;;;;52.67;47.50;;;;;;;16.98;100.00;100223.19;5047328;28;20132;-82
2023/01/19 07:44:32;;;;;;;53.55;47.47;;;;;;;17.15;100.00;100222.97;5048379;28;20049;-83
2023/01/19 07:46:59;;;;;;;60.83;47.30;;;;;;;17.20;100.00;100220.34;5049861;28;20489;-82
2023/01/19 07:49:26;;;;;;;52.45;47.60;;;;;;;17.36;100.00;100218.50;5049002;28;20132;-82
2023/01/19 07:51:55;;;;;;;53.33;48.03;;;;;;;17.48;100.00;100208.34;5050270;28;20429;-82
2023/01/19 07:54:21;;;;;;;55.05;49.33;;;;;;;17.76;100.00;100207.09;5049590;28;20466;-82
2023/01/19 07:56:48;;;;;;;56.67;49.22;;;;;;;17.78;100.00;100214.91;5050586;28;20588;-82
2023/01/19 07:59:15;;;;;;;54.60;49.08;;;;;;;17.95;100.00;100203.94;5051315;28;20053;-82
2023/01/19 08:01:43;;;;;;;53.65;48.67;;;;;;;17.89;100.00;100202.31;5048916;28;20497;-82
2023/01/19 08:04:10;;;;;;;55.78;50.15;;;;;;;17.93;100.00;100203.38;5048037;28;20110;-82
2023/01/19 08:06:39;;;;;;;55.85;49.97;;;;;;;17.92;100.00;100193.72;5047413;28;20169;-82
2023/01/19 08:09:06;;;;;;;64.93;49.03;;;;;;;18.13;100.00;100206.09;5046030;28;20057;-82
2023/01/19 08:11:33;;;;;;;54.75;49.08;;;;;;;18.14;100.00;100198.84;5045525;28;20106;-82
2023/01/19 08:14:00;;;;;;;57.25;51.58;;;;;;;18.22;100.00;100203.69;5047785;28;20134;-82
2023/01/19 08:16:27;;;;;;;60.65;48.28;;;;;;;18.39;100.00;100200.72;5047418;28;20108;-83
2023/01/19 08:18:55;;;;;;;59.35;50.92;;;;;;;18.57;100.00;100210.09;5048478;28;20081;-82
2023/01/19 08:21:22;;;;;;;59.53;51.58;;;;;;;18.42;100.00;100208.22;5046022;28;20103;-82
2023/01/19 08:23:52;;;;;;;56.30;50.40;;;;;;;18.65;100.00;100218.44;5050186;28;20107;-83
2023/01/19 08:26:22;;;;;;;54.60;48.35;;;;;;;18.79;100.00;100225.97;5046414;28;20151;-82
2023/01/19 08:28:49;;;;;;;55.90;49.45;;;;;;;19.03;100.00;100223.47;5043235;28;20046;-82
2023/01/19 08:31:16;;;;;;;54.03;48.92;;;;;;;19.21;100.00;100218.31;5044823;28;20564;-83
2023/01/19 08:33:43;;;;;;;55.30;49.33;;;;;;;19.02;100.00;100227.25;5035382;28;20041;-83
2023/01/19 08:36:11;;;;;;;56.83;51.25;;;;;;;19.12;100.00;100219.13;5041068;28;20107;-82
2023/01/19 08:38:42;;;;;;;57.15;51.95;;;;;;;19.29;100.00;100229.59;5037398;28;20461;-82
2023/01/19 08:41:09;;;;;;;58.25;52.50;;;;;;;19.23;100.00;100226.09;5040360;28;20080;-82
2023/01/19 08:43:36;;;;;;;57.33;51.05;;;;;;;19.63;100.00;100222.41;5037982;28;20076;-83
2023/01/19 08:46:04;;;;;;;55.03;50.08;;;;;;;19.71;100.00;100218.38;5033787;28;20072;-82
2023/01/19 08:48:31;;;;;;;53.83;48.78;;;;;;;19.81;100.00;100218.28;5037426;28;20115;-82
2023/01/19 08:50:59;;;;;;;56.50;51.00;;;;;;;19.77;99.17;100211.88;5035263;28;20076;-83
2023/01/19 08:53:27;;;;;;;57.95;52.05;;;;;;;19.81;99.95;100214.81;5024722;28;20522;-82
2023/01/19 08:55:56;;;;;;;58.00;52.10;;;;;;;19.82;97.59;100211.84;5042723;28;20057;-83
2023/01/19 08:58:23;;;;;;;57.72;52.10;;;;;;;20.09;98.29;100208.69;5045639;28;20111;-82
2023/01/19 09:00:51;;;;;;;57.75;52.25;;;;;;;20.45;95.39;100196.78;5044648;28;20050;-83
2023/01/19 09:03:19;;;;;;;61.70;55.13;;;;;;;20.18;92.94;100203.47;5050111;28;20044;-83
2023/01/19 09:05:46;;;;;;;58.33;52.05;;;;;;;20.26;92.32;100200.19;5033285;28;20059;-82
2023/01/19 09:08:14;;;;;;;56.78;50.58;;;;;;;20.31;94.52;100193.94;5049762;28;20489;-82
2023/01/19 09:10:46;;;;;;;58.00;51.22;;;;;;;20.70;90.06;100207.38;5031639;28;20487;-82
2023/01/19 09:13:14;;;;;;;58.13;51.78;;;;;;;20.54;88.43;100192.41;5039345;28;20049;-82
2023/01/19 09:15:42;;;;;;;60.00;51.90;;;;;;;21.04;87.92;100204.56;5041145;28;20046;-83
2023/01/19 09:18:12;;;;;;;60.13;52.60;;;;;;;20.50;84.62;100189.44;5046339;28;20061;-82
2023/01/19 09:20:41;;;;;;;58.50;52.58;;;;;;;20.20;84.73;100201.31;5038523;28;20109;-82
2023/01/19 09:23:09;;;;;;;58.33;52.38;;;;;;;20.50;83.06;100205.63;5050208;28;20081;-82
2023/01/19 09:25:36;;;;;;;57.35;51.35;;;;;;;20.98;81.35;100200.31;5041247;28;20054;-82
2023/01/19 09:28:05;;;;;;;62.75;54.60;;;;;;;20.80;81.22;100198.34;5035746;28;20045;-82
2023/01/19 09:30:32;;;;;;;60.28;54.17;;;;;;;21.53;79.92;100209.94;5044999;28;20053;-82
2023/01/19 09:33:03;;;;;;;61.80;55.58;;;;;;;21.26;78.39;100198.59;5038356;28;20071;-82
2023/01/19 09:35:30;;;;;;;60.65;54.22;;;;;;;21.05;81.13;100199.94;5035398;28;20041;-83
2023/01/19 09:37:57;;;;;;;64.82;55.47;;;;;;;21.08;78.24;100193.97;5032002;28;20132;-82
2023/01/19 09:40:24;;;;;;;67.70;53.60;;;;;;;21.44;74.62;100201.66;5040820;28;20053;-82
2023/01/19 09:42:56;;;;;;;66.00;54.25;;;;;;;21.19;73.70;100189.28;5043958;28;20106;-82
2023/01/19 09:45:31;;;;;;;62.20;52.20;;;;;;;21.20;76.78;100190.88;5030249;28;20049;-82
2023/01/19 09:48:01;;;;;;;58.47;52.50;;;;;;;21.66;75.24;100185.66;5032956;28;20058;-82
2023/01/19 09:50:31;;;;;;;64.47;53.53;;;;;;;21.24;74.42;100195.41;5037647;28;20053;-83
2023/01/19 09:53:06;;;;;;;60.63;54.47;;;;;;;21.21;72.42;100201.41;5038955;28;20088;-82
2023/01/19 09:55:33;;;;;;;60.70;54.55;;;;;;;20.98;73.71;100189.50;5031007;28;20128;-82
2023/01/19 09:58:00;;;;;;;68.18;57.42;;;;;;;21.19;74.08;100186.56;5027482;28;20131;-83
2023/01/19 10:00:31;;;;;;;62.22;54.13;;;;;;;21.20;73.15;100180.88;5034308;28;20053;-83
2023/01/19 10:03:06;;;;;;;63.63;54.53;;;;;;;20.96;72.99;100178.19;5031576;28;20516;-82
2023/01/19 10:05:39;;;;;;;62.85;55.65;;;;;;;20.74;74.12;100189.50;5038941;28;20042;-82
2023/01/19 10:08:17;;;;;;;64.70;53.90;;;;;;;21.62;73.85;100176.56;5036502;28;20171;-83
2023/01/19 10:10:51;;;;;;;62.28;55.35;;;;;;;21.44;72.77;100171.94;5033439;28;20049;-83
2023/01/19 10:13:37;;;;;;;58.50;52.10;;;;;;;20.94;72.51;100163.41;5035538;28;20095;-82
2023/01/19 10:16:25;;;;;;;56.65;51.47;;;;;;;21.18;72.25;100155.25;5032583;28;20050;-83
2023/01/19 10:18:57;;;;;;;59.45;53.47;;;;;;;21.10;73.97;100166.69;5034705;28;20580;-83
2023/01/19 10:21:30;;;;;;;60.08;53.55;;;;;;;21.47;70.92;100155.97;5028365;28;20081;-82
2023/01/19 10:24:01;;;;;;;61.10;54.22;;;;;;;21.50;71.77;100155.38;5029513;28;20053;-82
2023/01/19 10:26:35;;;;;;;59.03;53.40;;;;;;;20.91;74.45;100142.34;5032534;28;20103;-82
2023/01/19 10:29:05;;;;;;;61.70;54.60;;;;;;;21.80;71.16;100139.78;5033130;28;20053;-83
2023/01/19 10:31:35;;;;;;;59.78;53.40;;;;;;;21.38;69.97;100135.28;5039259;28;20116;-83
2023/01/19 10:34:03;;;;;;;63.78;56.45;;;;;;;21.14;71.38;100141.53;5037692;28;20073;-83
2023/01/19 10:36:35;;;;;;;61.95;55.35;;;;;;;21.13;70.52;100145.31;5045105;28;20057;-83
2023/01/19 10:39:03;;;;;;;;;;;;;;;21.39;68.79;100137.72;5041060;28;20123;-83
2023/01/19 10:41:40;;;;;;;59.55;53.70;;;;;;;21.09;70.94;100147.00;5038892;28;19928;-82
2023/01/19 10:44:09;;;;;;;64.18;57.17;;;;;;;21.41;69.75;100132.81;5035878;28;20079;-83
2023/01/19 10:46:43;;;;;;;58.88;53.67;;;;;;;21.80;69.75;100130.88;5046535;28;20049;-83
2023/01/19 10:49:24;;;;;;;60.08;53.30;;;;;;;22.06;68.10;100132.09;5045198;28;20045;-83
2023/01/19 10:51:51;;;;;;;61.63;55.47;;;;;;;21.59;69.83;100142.00;5047999;28;20139;-83
2023/01/19 10:54:20;;;;;;;62.92;55.90;;;;;;;21.87;66.69;100139.41;5046973;28;20057;-83
2023/01/19 10:56:53;;;;;;;61.20;55.40;;;;;;;21.94;65.91;100142.56;5038798;28;20081;-83
2023/01/19 10:59:33;;;;;;;61.17;55.00;;;;;;;22.04;66.40;100128.06;5032470;28;20099;-83
2023/01/19 11:02:17;;;;;;;59.40;53.30;;;;;;;22.59;65.69;100120.84;5034967;28;20462;-83
2023/01/19 11:04:45;;;;;;;59.55;53.40;;;;;;;22.21;66.28;100124.81;5035658;28;20470;-83
2023/01/19 11:07:18;;;;;;;73.90;66.13;;;;;;;22.30;65.39;100126.56;5046182;28;20107;-82
2023/01/19 11:09:46;;;;;;;61.35;55.17;;;;;;;21.97;65.92;100117.63;5041490;28;20495;-83
2023/01/19 11:12:18;;;;;;;64.32;53.50;;;;;;;22.15;65.32;100119.50;5039408;28;20083;-83
2023/01/19 11:14:46;;;;;;;58.42;52.70;;;;;;;22.39;66.63;100116.66;5036912;28;20115;-83
2023/01/19 11:17:20;;;;;;;59.67;54.20;;;;;;;22.13;66.56;100112.75;5036062;28;20127;-83
2023/01/19 11:19:54;;;;;;;61.97;55.75;;;;;;;22.25;65.62;100115.03;5046652;28;20466;-83
2023/01/19 11:22:27;;;;;;;62.35;56.05;;;;;;;22.48;64.46;100113.22;5051536;28;20174;-83
2023/01/19 11:24:58;;;;;;;59.97;54.72;;;;;;;22.38;65.42;100117.72;5042722;28;20053;-83